createdAt,value
2019-03-03T00:02:19.838Z,57.17
2019-03-03T00:04:46.758Z,61.00
2019-03-03T00:07:13.241Z,63.13
2019-03-03T00:09:39.539Z,68.85
2019-03-03T00:12:05.898Z,66.50
2019-03-03T00:14:32.263Z,63.38
2019-03-03T00:16:58.712Z,58.83
2019-03-03T00:19:25.018Z,57.33
2019-03-03T00:21:51.472Z,59.33
2019-03-03T00:24:17.735Z,55.10
2019-03-03T00:26:44.125Z,51.70
2019-03-03T00:29:10.382Z,57.70
2019-03-03T00:31:38.225Z,53.78
2019-03-03T00:34:04.749Z,56.42
2019-03-03T00:36:49.549Z,55.90
2019-03-03T00:39:20.626Z,56.48
2019-03-03T00:41:48.785Z,55.85
2019-03-03T00:44:17.081Z,57.93
2019-03-03T00:46:45.361Z,56.00
2019-03-03T00:49:13.736Z,54.77
2019-03-03T00:51:44.786Z,56.58
2019-03-03T00:54:29.212Z,58.00
2019-03-03T00:57:00.308Z,57.00
2019-03-03T00:59:43.662Z,56.90
2019-03-03T01:02:11.816Z,55.80
2019-03-03T01:04:40.102Z,59.85
2019-03-03T01:07:24.787Z,55.65
2019-03-03T01:09:53.003Z,52.62
2019-03-03T01:12:35.930Z,53.38
2019-03-03T01:15:05.289Z,54.55
2019-03-03T01:17:33.634Z,51.58
2019-03-03T01:20:07.897Z,48.68
2019-03-03T01:22:42.129Z,51.45
2019-03-03T01:25:08.564Z,48.50
2019-03-03T01:27:35.030Z,48.85
2019-03-03T01:30:03.656Z,48.65
2019-03-03T01:32:30.030Z,46.33
2019-03-03T01:34:56.453Z,47.35
2019-03-03T01:37:22.713Z,45.85
2019-03-03T01:39:48.987Z,46.98
2019-03-03T01:42:18.511Z,45.48
2019-03-03T01:44:46.884Z,45.48
2019-03-03T01:47:13.152Z,44.42
2019-03-03T01:49:40.104Z,45.65
2019-03-03T01:52:06.370Z,39.42
2019-03-03T01:54:32.631Z,40.38
2019-03-03T01:56:59.110Z,43.10
2019-03-03T01:59:25.363Z,43.35
2019-03-03T02:01:51.944Z,38.53
2019-03-03T02:04:18.447Z,41.15
2019-03-03T02:06:44.899Z,39.45
2019-03-03T02:09:11.177Z,35.10
2019-03-03T02:11:37.819Z,36.75
2019-03-03T02:14:04.127Z,35.55
2019-03-03T02:16:30.379Z,35.20
2019-03-03T02:18:57.010Z,32.85
2019-03-03T02:21:23.475Z,34.88
2019-03-03T02:23:49.858Z,33.88
2019-03-03T02:26:16.247Z,32.60
2019-03-03T02:28:42.715Z,35.65
2019-03-03T02:31:11.273Z,33.35
2019-03-03T02:33:37.717Z,31.68
2019-03-03T02:36:04.168Z,37.63
2019-03-03T02:38:30.430Z,36.77
2019-03-03T02:40:56.972Z,32.17
2019-03-03T02:43:23.223Z,32.63
2019-03-03T02:45:49.614Z,32.93
2019-03-03T02:48:15.971Z,30.80
2019-03-03T02:50:42.256Z,32.45
2019-03-03T02:53:08.486Z,28.50
2019-03-03T02:55:34.978Z,30.43
2019-03-03T02:58:01.448Z,34.10
2019-03-03T03:00:27.888Z,31.57
2019-03-03T03:02:56.097Z,29.32
2019-03-03T03:05:29.801Z,30.82
2019-03-03T03:08:00.784Z,30.20
2019-03-03T03:10:28.987Z,31.00
2019-03-03T03:13:09.227Z,29.27
2019-03-03T03:15:46.452Z,24.82
2019-03-03T03:18:14.714Z,30.15
2019-03-03T03:20:55.178Z,27.87
2019-03-03T03:23:23.333Z,26.80
2019-03-03T03:25:51.640Z,25.92
2019-03-03T03:28:19.882Z,23.92
2019-03-03T03:30:53.842Z,24.15
2019-03-03T03:33:22.019Z,26.20
2019-03-03T03:35:56.981Z,27.22
2019-03-03T03:38:27.877Z,27.13
2019-03-03T03:40:56.045Z,27.20
2019-03-03T03:43:36.292Z,27.37
2019-03-03T03:46:21.056Z,22.32
2019-03-03T03:49:05.936Z,22.90
2019-03-03T03:51:54.980Z,28.27
2019-03-03T03:54:28.546Z,20.08
2019-03-03T03:57:02.714Z,26.12
2019-03-03T03:59:37.267Z,23.45
2019-03-03T04:02:05.629Z,22.35
2019-03-03T04:04:33.995Z,21.07
2019-03-03T04:07:08.269Z,28.12
2019-03-03T04:09:50.234Z,20.62
2019-03-03T04:12:36.929Z,18.50
2019-03-03T04:15:17.073Z,23.27
2019-03-03T04:17:48.020Z,20.72
2019-03-03T04:20:18.895Z,20.32
2019-03-03T04:23:05.268Z,17.85
2019-03-03T04:25:33.440Z,22.75
2019-03-03T04:28:04.372Z,19.37
2019-03-03T04:30:35.764Z,18.67
2019-03-03T04:33:06.900Z,21.75
2019-03-03T04:35:40.970Z,20.68
2019-03-03T04:38:09.122Z,20.00
2019-03-03T04:40:40.642Z,18.98
2019-03-03T04:43:08.807Z,22.77
2019-03-03T04:45:36.958Z,22.70
2019-03-03T04:48:08.710Z,23.87
2019-03-03T04:50:51.940Z,23.75
2019-03-03T04:53:25.952Z,22.40
2019-03-03T04:55:54.139Z,22.32
2019-03-03T04:58:28.564Z,16.45
2019-03-03T05:01:08.732Z,22.35
2019-03-03T05:03:36.989Z,20.32
2019-03-03T05:06:21.688Z,21.73
2019-03-03T05:08:49.903Z,17.32
2019-03-03T05:11:33.612Z,20.45
2019-03-03T05:14:01.806Z,22.17
2019-03-03T05:16:38.978Z,19.42
2019-03-03T05:19:07.200Z,20.48
2019-03-03T05:21:33.546Z,22.67
2019-03-03T05:23:59.993Z,19.87
2019-03-03T05:26:26.354Z,20.65
2019-03-03T05:28:52.626Z,22.00
2019-03-03T05:31:21.302Z,17.92
2019-03-03T05:33:49.846Z,23.70
2019-03-03T05:36:16.047Z,21.02
2019-03-03T05:38:42.416Z,21.07
2019-03-03T05:41:08.665Z,20.30
2019-03-03T05:43:36.214Z,21.50
2019-03-03T05:46:02.794Z,21.05
2019-03-03T05:48:29.213Z,24.18
2019-03-03T05:50:55.504Z,23.45
2019-03-03T05:53:21.855Z,23.83
2019-03-03T05:55:48.204Z,22.35
2019-03-03T05:58:17.336Z,22.42
2019-03-03T06:00:43.566Z,22.00
2019-03-03T06:03:11.264Z,26.00
2019-03-03T06:05:37.413Z,26.90
2019-03-03T06:08:03.684Z,28.52
2019-03-03T06:10:34.483Z,26.77
2019-03-03T06:13:00.714Z,27.80
2019-03-03T06:15:27.044Z,26.65
2019-03-03T06:17:53.342Z,25.27
2019-03-03T06:20:20.420Z,27.05
2019-03-03T06:22:46.655Z,26.37
2019-03-03T06:25:14.917Z,29.77
2019-03-03T06:27:41.260Z,25.45
2019-03-03T06:30:10.656Z,23.75
2019-03-03T06:32:37.022Z,24.02
2019-03-03T06:35:05.957Z,26.93
2019-03-03T06:37:34.152Z,23.85
2019-03-03T06:40:00.439Z,25.68
2019-03-03T06:42:26.960Z,26.77
2019-03-03T06:44:53.246Z,26.52
2019-03-03T06:47:19.506Z,25.02
2019-03-03T06:49:45.788Z,24.80
2019-03-03T06:52:12.048Z,24.40
2019-03-03T06:54:38.580Z,24.18
2019-03-03T06:57:04.961Z,23.55
2019-03-03T06:59:31.250Z,25.23
2019-03-03T07:01:57.551Z,23.07
2019-03-03T07:04:23.872Z,23.15
2019-03-03T07:06:52.456Z,22.67
2019-03-03T07:09:18.303Z,19.77
2019-03-03T07:11:44.574Z,20.20
2019-03-03T07:14:11.197Z,17.75
2019-03-03T07:16:37.558Z,21.00
2019-03-03T07:19:03.785Z,20.23
2019-03-03T07:21:30.136Z,16.90
2019-03-03T07:23:56.297Z,18.00
2019-03-03T07:26:22.651Z,21.23
2019-03-03T07:28:48.902Z,18.45
2019-03-03T07:31:15.194Z,19.25
2019-03-03T07:33:42.744Z,19.45
2019-03-03T07:36:09.127Z,17.20
2019-03-03T07:38:35.423Z,19.07
2019-03-03T07:41:01.725Z,19.70
2019-03-03T07:43:28.075Z,18.45
2019-03-03T07:45:54.371Z,17.65
2019-03-03T07:48:20.644Z,16.48
2019-03-03T07:50:46.911Z,19.50
2019-03-03T07:53:13.442Z,18.75
2019-03-03T07:55:39.810Z,18.07
2019-03-03T07:58:06.213Z,20.52
2019-03-03T08:00:32.705Z,18.55
2019-03-03T08:02:58.991Z,19.45
2019-03-03T08:05:25.384Z,18.92
2019-03-03T08:07:51.885Z,17.95
2019-03-03T08:10:18.278Z,17.25
2019-03-03T08:12:44.955Z,18.65
2019-03-03T08:15:16.181Z,15.90
2019-03-03T08:17:42.482Z,16.37
2019-03-03T08:20:10.489Z,16.95
2019-03-03T08:22:36.841Z,18.15
2019-03-03T08:25:06.069Z,16.73
2019-03-03T08:27:32.630Z,18.20
2019-03-03T08:29:59.010Z,18.07
2019-03-03T08:32:25.394Z,15.18
2019-03-03T08:34:53.292Z,17.60
2019-03-03T08:37:22.261Z,16.93
2019-03-03T08:39:48.633Z,16.35
2019-03-03T08:42:35.048Z,16.65
2019-03-03T08:45:19.927Z,16.95
2019-03-03T08:47:57.113Z,17.85
2019-03-03T08:50:31.524Z,18.07
2019-03-03T08:53:16.561Z,16.30
2019-03-03T08:55:50.488Z,15.15
2019-03-03T08:58:18.884Z,15.53
2019-03-03T09:00:47.073Z,14.05
2019-03-03T09:03:24.277Z,16.75
2019-03-03T09:05:57.222Z,16.97
2019-03-03T09:08:37.553Z,19.30
2019-03-03T09:11:05.931Z,18.85
2019-03-03T09:13:37.124Z,18.25
2019-03-03T09:16:05.416Z,14.98
2019-03-03T09:18:48.740Z,16.52
2019-03-03T09:21:25.938Z,17.48
2019-03-03T09:24:15.078Z,17.00
2019-03-03T09:26:43.296Z,16.52
2019-03-03T09:29:11.796Z,16.25
2019-03-03T09:31:40.106Z,15.28
2019-03-03T09:34:08.406Z,16.23
2019-03-03T09:36:45.611Z,16.05
2019-03-03T09:39:30.811Z,15.25
2019-03-03T09:42:02.107Z,14.78
2019-03-03T09:44:45.307Z,15.08
2019-03-03T09:47:28.766Z,14.03
2019-03-03T09:50:13.777Z,14.23
2019-03-03T09:52:42.569Z,14.87
2019-03-03T09:55:10.955Z,15.00
2019-03-03T09:57:45.205Z,14.23
2019-03-03T10:00:25.945Z,11.78
2019-03-03T10:02:56.842Z,12.98
2019-03-03T10:05:28.229Z,13.15
2019-03-03T10:07:59.139Z,13.50
2019-03-03T10:10:36.122Z,14.18
2019-03-03T10:13:04.540Z,15.05
2019-03-03T10:15:32.794Z,13.90
2019-03-03T10:18:05.977Z,12.45
2019-03-03T10:20:34.253Z,15.05
2019-03-03T10:23:14.717Z,13.38
2019-03-03T10:25:45.701Z,14.65
2019-03-03T10:28:13.959Z,15.32
2019-03-03T10:30:57.283Z,12.93
2019-03-03T10:33:31.504Z,13.32
2019-03-03T10:36:02.468Z,15.28
2019-03-03T10:38:36.072Z,14.90
2019-03-03T10:41:03.346Z,14.87
2019-03-03T10:43:37.571Z,14.20
2019-03-03T10:46:24.056Z,16.55
2019-03-03T10:48:55.333Z,16.62
2019-03-03T10:51:41.556Z,16.20
2019-03-03T10:54:09.945Z,16.55
2019-03-03T10:56:46.623Z,17.07
2019-03-03T10:59:14.955Z,16.87
2019-03-03T11:02:00.014Z,15.95
2019-03-03T11:04:30.413Z,15.75
2019-03-03T11:07:15.098Z,16.95
2019-03-03T11:10:03.050Z,16.87
2019-03-03T11:12:34.078Z,16.62
2019-03-03T11:15:18.199Z,15.85
2019-03-03T11:17:41.421Z,18.67
2019-03-03T11:20:12.873Z,19.77
2019-03-03T11:22:57.808Z,17.42
2019-03-03T11:25:31.762Z,17.15
2019-03-03T11:28:01.122Z,16.90
2019-03-03T11:30:39.491Z,17.10
2019-03-03T11:33:19.878Z,18.90
2019-03-03T11:35:54.055Z,17.32
2019-03-03T11:38:25.316Z,18.57
2019-03-03T11:40:53.640Z,18.73
2019-03-03T11:43:22.265Z,16.93
2019-03-03T11:46:06.923Z,14.40
2019-03-03T11:48:49.863Z,16.35
2019-03-03T11:51:27.305Z,14.35
2019-03-03T11:53:58.203Z,13.60
2019-03-03T11:56:29.100Z,11.63
2019-03-03T11:58:57.302Z,11.60
2019-03-03T12:01:42.475Z,12.70
2019-03-03T12:04:10.764Z,11.53
2019-03-03T12:06:48.159Z,11.83
2019-03-03T12:09:35.124Z,11.08
2019-03-03T12:12:19.961Z,12.53
2019-03-03T12:15:03.009Z,14.23
2019-03-03T12:17:31.557Z,12.55
2019-03-03T12:19:59.880Z,12.23
2019-03-03T12:22:30.860Z,10.98
2019-03-03T12:24:59.064Z,13.08
2019-03-03T12:27:30.256Z,12.65
2019-03-03T12:29:58.666Z,14.05
2019-03-03T12:32:28.656Z,12.85
2019-03-03T12:35:00.524Z,12.10
2019-03-03T12:37:31.807Z,14.07
2019-03-03T12:39:59.994Z,12.37
2019-03-03T12:42:28.397Z,11.38
2019-03-03T12:44:56.670Z,9.70
2019-03-03T12:47:41.843Z,11.50
2019-03-03T12:50:16.364Z,9.45
2019-03-03T12:52:50.294Z,10.45
2019-03-03T12:55:33.997Z,11.15
2019-03-03T12:58:11.425Z,10.60
2019-03-03T13:00:45.476Z,11.12
2019-03-03T13:03:25.562Z,11.30
2019-03-03T13:05:56.615Z,9.90
2019-03-03T13:08:41.328Z,9.03
2019-03-03T13:11:15.216Z,12.63
2019-03-03T13:13:49.380Z,10.72
2019-03-03T13:16:20.808Z,9.83
2019-03-03T13:19:05.518Z,11.45
2019-03-03T13:21:33.849Z,10.93
2019-03-03T13:24:20.344Z,9.83
2019-03-03T13:26:54.583Z,10.28
2019-03-03T13:29:31.934Z,11.45
2019-03-03T13:32:00.230Z,11.03
2019-03-03T13:34:37.387Z,11.48
2019-03-03T13:37:14.711Z,11.60
2019-03-03T13:39:49.092Z,11.70
2019-03-03T13:42:34.102Z,11.70
2019-03-03T13:45:04.088Z,10.40
2019-03-03T13:47:30.416Z,10.95
2019-03-03T13:49:57.083Z,11.20
2019-03-03T13:52:25.286Z,9.90
2019-03-03T13:54:51.997Z,10.00
2019-03-03T13:57:18.452Z,10.30
2019-03-03T13:59:44.962Z,9.85
2019-03-03T14:02:12.387Z,10.45
2019-03-03T14:04:39.499Z,10.60
2019-03-03T14:07:05.864Z,9.03
2019-03-03T14:09:32.291Z,9.50
2019-03-03T14:11:58.703Z,9.53
2019-03-03T14:14:24.987Z,8.23
2019-03-03T14:16:51.265Z,8.33
2019-03-03T14:19:17.666Z,8.28
2019-03-03T14:21:44.303Z,7.92
2019-03-03T14:24:10.768Z,7.50
2019-03-03T14:26:37.599Z,8.40
2019-03-03T14:29:03.926Z,6.65
2019-03-03T14:31:30.209Z,7.08
2019-03-03T14:33:56.684Z,7.25
2019-03-03T14:36:23.121Z,6.47
2019-03-03T14:38:49.587Z,6.20
2019-03-03T14:41:18.341Z,6.78
2019-03-03T14:43:47.839Z,6.00
2019-03-03T14:46:16.744Z,5.80
2019-03-03T14:48:43.177Z,5.15
2019-03-03T14:51:09.808Z,5.87
2019-03-03T14:53:36.069Z,5.65
2019-03-03T14:56:02.494Z,5.65
2019-03-03T14:58:31.626Z,6.30
2019-03-03T15:00:58.233Z,6.17
2019-03-03T15:03:24.705Z,6.95
2019-03-03T15:05:53.209Z,6.33
2019-03-03T15:08:19.553Z,8.00
2019-03-03T15:10:45.818Z,8.98
2019-03-03T15:13:12.274Z,8.00
2019-03-03T15:15:38.760Z,11.30
2019-03-03T15:18:05.264Z,10.58
2019-03-03T15:20:31.827Z,8.88
2019-03-03T15:22:58.605Z,11.10
2019-03-03T15:25:25.006Z,8.88
2019-03-03T15:27:51.599Z,8.13
2019-03-03T15:30:19.834Z,7.50
2019-03-03T15:32:46.303Z,7.47
2019-03-03T15:35:13.270Z,7.75
2019-03-03T15:37:41.548Z,10.58
2019-03-03T15:40:11.057Z,8.83
2019-03-03T15:42:37.631Z,9.45
2019-03-03T15:45:10.420Z,8.80
2019-03-03T15:47:36.900Z,6.72
2019-03-03T15:50:07.631Z,7.75
2019-03-03T15:52:34.123Z,8.43
2019-03-03T15:55:00.650Z,11.05
2019-03-03T15:57:27.146Z,6.50
2019-03-03T15:59:53.678Z,8.98
2019-03-03T16:02:20.083Z,7.90
2019-03-03T16:04:46.634Z,10.10
2019-03-03T16:07:13.067Z,8.20
2019-03-03T16:09:39.614Z,8.73
2019-03-03T16:12:07.943Z,8.38
2019-03-03T16:14:34.387Z,8.63
2019-03-03T16:17:01.077Z,10.23
2019-03-03T16:19:27.541Z,10.40
2019-03-03T16:21:54.240Z,9.90
2019-03-03T16:24:31.110Z,11.10
2019-03-03T16:27:08.259Z,11.40
2019-03-03T16:29:34.684Z,13.15
2019-03-03T16:32:01.091Z,8.88
2019-03-03T16:34:29.371Z,11.75
2019-03-03T16:36:55.688Z,10.98
2019-03-03T16:39:22.058Z,12.95
2019-03-03T16:41:48.397Z,11.20
2019-03-03T16:44:14.692Z,12.33
2019-03-03T16:46:41.130Z,12.35
2019-03-03T16:49:07.713Z,14.10
2019-03-03T16:51:34.170Z,13.20
2019-03-03T16:54:00.756Z,12.88
2019-03-03T16:56:27.461Z,11.43
2019-03-03T16:58:53.778Z,12.53
2019-03-03T17:01:20.268Z,12.68
2019-03-03T17:03:46.710Z,11.90
2019-03-03T17:06:19.166Z,12.53
2019-03-03T17:08:46.329Z,12.60
2019-03-03T17:11:12.612Z,13.35
2019-03-03T17:13:39.067Z,12.88
2019-03-03T17:16:05.474Z,11.25
2019-03-03T17:18:32.115Z,11.97
2019-03-03T17:20:58.704Z,12.65
2019-03-03T17:23:25.128Z,12.55
2019-03-03T17:25:51.783Z,13.10
2019-03-03T17:28:18.229Z,14.28
2019-03-03T17:30:44.678Z,79.47
2019-03-03T17:33:10.984Z,25.72
2019-03-03T17:35:40.856Z,37.60
2019-03-03T17:38:07.615Z,14.60
2019-03-03T17:40:33.991Z,14.05
2019-03-03T17:43:00.271Z,12.70
2019-03-03T17:45:26.823Z,12.35
2019-03-03T17:47:53.621Z,12.10
2019-03-03T17:50:27.535Z,12.78
2019-03-03T17:52:53.883Z,13.00
2019-03-03T17:55:20.651Z,15.05
2019-03-03T17:57:47.108Z,14.90
2019-03-03T18:00:17.021Z,15.90
2019-03-03T18:05:18.276Z,15.98
2019-03-03T18:07:44.777Z,16.32
2019-03-03T18:10:12.723Z,17.48
2019-03-03T18:12:39.090Z,15.40
2019-03-03T18:15:08.596Z,17.23
2019-03-03T18:17:35.087Z,17.50
2019-03-03T18:20:01.657Z,17.92
2019-03-03T18:22:28.209Z,18.75
2019-03-03T18:24:54.577Z,18.02
2019-03-03T18:27:22.934Z,18.23
2019-03-03T18:29:49.363Z,18.55
2019-03-03T18:32:16.171Z,18.70
2019-03-03T18:34:42.863Z,19.82
2019-03-03T18:37:09.447Z,20.55
2019-03-03T18:39:38.083Z,19.60
2019-03-03T18:42:04.606Z,21.25
2019-03-03T18:44:31.127Z,19.57
2019-03-03T18:46:59.619Z,20.48
2019-03-03T18:49:26.161Z,22.65
2019-03-03T18:51:52.561Z,21.42
2019-03-03T18:54:19.012Z,23.35
2019-03-03T18:56:45.394Z,22.60
2019-03-03T18:59:14.421Z,22.95
2019-03-03T19:01:41.162Z,20.50
2019-03-03T19:04:07.664Z,23.12
2019-03-03T19:06:34.980Z,22.77
2019-03-03T19:09:01.416Z,21.93
2019-03-03T19:11:27.750Z,24.25
2019-03-03T19:13:55.382Z,22.48
2019-03-03T19:16:21.934Z,21.35
2019-03-03T19:18:48.460Z,23.15
2019-03-03T19:21:14.788Z,21.35
2019-03-03T19:23:41.142Z,21.50
2019-03-03T19:26:07.418Z,20.48
2019-03-03T19:28:33.883Z,21.90
2019-03-03T19:31:00.284Z,22.20
2019-03-03T19:33:30.449Z,23.65
2019-03-03T19:35:56.986Z,24.12
2019-03-03T19:38:23.510Z,22.22
2019-03-03T19:40:50.024Z,23.73
2019-03-03T19:43:16.443Z,24.90
2019-03-03T19:45:46.357Z,23.07
2019-03-03T19:48:13.056Z,26.07
2019-03-03T19:50:39.585Z,30.08
2019-03-03T19:53:06.079Z,25.15
2019-03-03T19:55:32.551Z,29.42
2019-03-03T19:57:58.960Z,26.62
2019-03-03T20:00:35.357Z,30.00
2019-03-03T20:02:56.762Z,30.90
2019-03-03T20:05:23.215Z,31.95
2019-03-03T20:07:49.684Z,30.15
2019-03-03T20:10:18.744Z,33.95
2019-03-03T20:12:45.172Z,33.18
2019-03-03T20:15:11.522Z,35.23
2019-03-03T20:17:40.329Z,36.00
2019-03-03T20:20:13.010Z,32.38
2019-03-03T20:22:39.472Z,33.67
2019-03-03T20:25:07.083Z,33.18
2019-03-03T20:27:33.623Z,34.75
2019-03-03T20:30:00.384Z,34.63
2019-03-03T20:32:27.076Z,35.23
2019-03-03T20:34:53.377Z,35.75
2019-03-03T20:37:19.825Z,36.70
2019-03-03T20:39:46.187Z,34.23
2019-03-03T20:44:58.977Z,39.05
2019-03-03T20:47:25.507Z,43.58
2019-03-03T20:49:51.774Z,42.75
2019-03-03T20:52:18.346Z,41.33
2019-03-03T20:54:44.976Z,41.77
2019-03-03T20:57:11.576Z,46.73
2019-03-03T20:59:38.060Z,37.42
2019-03-03T21:02:06.567Z,35.98
2019-03-03T21:04:32.877Z,37.35
2019-03-03T21:06:59.249Z,38.13
2019-03-03T21:09:25.740Z,36.88
2019-03-03T21:11:52.203Z,41.73
2019-03-03T21:14:18.722Z,37.50
2019-03-03T21:16:45.508Z,37.58
2019-03-03T21:19:12.229Z,38.60
2019-03-03T21:21:38.786Z,40.73
2019-03-03T21:24:05.461Z,42.23
2019-03-03T21:26:33.948Z,39.67
2019-03-03T21:29:00.413Z,37.50
2019-03-03T21:31:27.114Z,39.23
2019-03-03T21:33:53.446Z,37.50
2019-03-03T21:36:19.871Z,38.67
2019-03-03T21:38:46.389Z,39.30
2019-03-03T21:41:13.017Z,37.67
2019-03-03T21:43:39.369Z,37.70
2019-03-03T21:46:06.068Z,34.45
2019-03-03T21:48:32.867Z,35.68
2019-03-03T21:50:59.235Z,34.00
2019-03-03T21:53:25.651Z,34.78
2019-03-03T21:55:53.208Z,34.60
2019-03-03T21:58:19.476Z,34.20
2019-03-03T22:00:45.824Z,30.90
2019-03-03T22:03:12.353Z,30.35
2019-03-03T22:05:38.816Z,30.25
2019-03-03T22:08:05.257Z,28.60
2019-03-03T22:10:32.723Z,28.52
2019-03-03T22:13:06.926Z,28.57
2019-03-03T22:15:33.596Z,33.15
2019-03-03T22:17:59.998Z,23.83
2019-03-03T22:20:26.416Z,30.12
2019-03-03T22:22:52.823Z,26.68
2019-03-03T22:25:19.089Z,25.32
2019-03-03T22:27:45.599Z,27.35
2019-03-03T22:30:14.747Z,27.32
2019-03-03T22:32:41.163Z,27.30
2019-03-03T22:35:07.869Z,26.97
2019-03-03T22:37:34.115Z,27.15
2019-03-03T22:40:00.379Z,26.80
2019-03-03T22:42:26.820Z,25.92
2019-03-03T22:44:53.323Z,26.00
2019-03-03T22:47:19.578Z,26.42
2019-03-03T22:49:45.875Z,21.02
2019-03-03T22:52:12.145Z,21.57
2019-03-03T22:54:40.985Z,25.77
2019-03-03T22:57:07.252Z,23.18
2019-03-03T22:59:33.658Z,22.55
2019-03-03T23:02:00.143Z,19.95
2019-03-03T23:04:51.574Z,21.87
2019-03-03T23:07:24.762Z,23.27
2019-03-03T23:10:00.712Z,23.30
2019-03-03T23:12:30.780Z,24.65
2019-03-03T23:15:06.646Z,22.50
2019-03-03T23:17:54.460Z,18.20
2019-03-03T23:20:30.646Z,17.42
2019-03-03T23:23:16.312Z,19.17
2019-03-03T23:25:52.331Z,24.37
2019-03-03T23:28:19.636Z,18.52
2019-03-03T23:30:46.593Z,22.58
2019-03-03T23:33:13.085Z,21.82
2019-03-03T23:35:39.378Z,18.77
2019-03-03T23:38:05.734Z,19.37
2019-03-03T23:40:32.110Z,20.27
2019-03-03T23:43:00.770Z,17.90
2019-03-03T23:45:27.116Z,21.85
2019-03-03T23:47:53.388Z,18.10
2019-03-03T23:50:19.634Z,17.57
2019-03-03T23:52:45.928Z,18.35
2019-03-03T23:55:12.312Z,17.32
2019-03-03T23:57:38.714Z,19.02
